createdAt,value
2023-02-11T00:00:45.068Z,1024.52
2023-02-11T00:01:45.090Z,1024.50
2023-02-11T00:02:47.743Z,1024.45
2023-02-11T00:03:45.089Z,1024.39
2023-02-11T00:04:45.015Z,1024.35
2023-02-11T00:05:44.995Z,1024.32
2023-02-11T00:06:45.049Z,1024.33
2023-02-11T00:07:44.983Z,1024.32
2023-02-11T00:08:44.987Z,1024.30
2023-02-11T00:09:44.972Z,1024.30
2023-02-11T00:10:44.952Z,1024.31
2023-02-11T00:11:45.014Z,1024.31
2023-02-11T00:12:44.917Z,1024.27
2023-02-11T00:13:44.903Z,1024.22
2023-02-11T00:14:44.896Z,1024.21
2023-02-11T00:15:44.869Z,1024.15
2023-02-11T00:16:44.965Z,1024.15
2023-02-11T00:17:44.863Z,1024.14
2023-02-11T00:18:44.858Z,1024.18
2023-02-11T00:19:44.846Z,1024.12
2023-02-11T00:20:44.825Z,1024.03
2023-02-11T00:21:44.857Z,1024.08
2023-02-11T00:22:44.821Z,1024.07
2023-02-11T00:23:44.797Z,1024.00
2023-02-11T00:24:44.784Z,1024.01
2023-02-11T00:25:44.776Z,1023.95
2023-02-11T00:26:44.802Z,1023.92
2023-02-11T00:27:44.746Z,1023.93
2023-02-11T00:28:44.748Z,1023.89
2023-02-11T00:29:44.725Z,1023.87
2023-02-11T00:30:44.843Z,1023.83
2023-02-11T00:31:45.003Z,1023.78
2023-02-11T00:32:44.730Z,1023.77
2023-02-11T00:33:44.695Z,1023.81
2023-02-11T00:34:44.672Z,1023.77
2023-02-11T00:35:44.655Z,1023.73
2023-02-11T00:36:44.689Z,1023.76
2023-02-11T00:37:44.651Z,1023.78
2023-02-11T00:38:44.631Z,1023.81
2023-02-11T00:39:44.606Z,1023.77
2023-02-11T00:40:44.627Z,1023.77
2023-02-11T00:41:44.646Z,1023.82
2023-02-11T00:42:44.585Z,1023.79
2023-02-11T00:43:44.560Z,1023.79
2023-02-11T00:44:44.561Z,1023.79
2023-02-11T00:45:44.538Z,1023.77
2023-02-11T00:46:44.652Z,1023.76
2023-02-11T00:47:44.516Z,1023.72
2023-02-11T00:48:44.507Z,1023.75
2023-02-11T00:49:44.494Z,1023.77
2023-02-11T00:50:44.486Z,1023.75
2023-02-11T00:51:44.511Z,1023.77
2023-02-11T00:52:44.473Z,1023.80
2023-02-11T00:53:44.442Z,1023.79
2023-02-11T00:54:44.456Z,1023.83
2023-02-11T00:55:44.424Z,1023.83
2023-02-11T00:56:44.467Z,1023.86
2023-02-11T00:57:44.403Z,1023.89
2023-02-11T00:58:44.396Z,1023.92
2023-02-11T00:59:44.380Z,1023.92
2023-02-11T01:00:44.369Z,1023.92
2023-02-11T01:01:44.478Z,1023.89
2023-02-11T01:02:44.354Z,1023.98
2023-02-11T01:03:44.337Z,1023.96
2023-02-11T01:04:44.333Z,1023.96
2023-02-11T01:05:44.328Z,1023.93
2023-02-11T01:06:44.364Z,1023.88
2023-02-11T01:07:44.292Z,1023.82
2023-02-11T01:08:44.284Z,1023.75
2023-02-11T01:09:44.267Z,1023.73
2023-02-11T01:10:44.266Z,1023.68
2023-02-11T01:11:44.298Z,1023.68
2023-02-11T01:12:44.236Z,1023.69
2023-02-11T01:13:44.238Z,1023.71
2023-02-11T01:14:44.221Z,1023.79
2023-02-11T01:15:44.287Z,1023.81
2023-02-11T01:16:44.259Z,1023.74
2023-02-11T01:17:44.222Z,1023.83
2023-02-11T01:18:44.238Z,1023.80
2023-02-11T01:19:44.178Z,1023.84
2023-02-11T01:20:44.168Z,1023.80
2023-02-11T01:21:44.193Z,1023.74
2023-02-11T01:22:44.171Z,1023.76
2023-02-11T01:23:44.119Z,1023.70
2023-02-11T01:24:44.112Z,1023.60
2023-02-11T01:25:44.087Z,1023.58
2023-02-11T01:26:44.140Z,1023.55
2023-02-11T01:27:44.084Z,1023.58
2023-02-11T01:28:44.084Z,1023.55
2023-02-11T01:29:44.049Z,1023.49
2023-02-11T01:30:44.081Z,1023.47
2023-02-11T01:31:44.150Z,1023.51
2023-02-11T01:32:44.027Z,1023.43
2023-02-11T01:33:44.020Z,1023.36
2023-02-11T01:34:44.001Z,1023.37
2023-02-11T01:35:44.003Z,1023.32
2023-02-11T01:36:44.028Z,1023.34
2023-02-11T01:37:43.968Z,1023.28
2023-02-11T01:38:43.956Z,1023.26
2023-02-11T01:39:43.956Z,1023.26
2023-02-11T01:40:43.926Z,1023.27
2023-02-11T01:41:43.954Z,1023.32
2023-02-11T01:42:43.893Z,1023.32
2023-02-11T01:43:43.928Z,1023.34
2023-02-11T01:44:43.889Z,1023.27
2023-02-11T01:45:43.884Z,1023.27
2023-02-11T01:46:43.984Z,1023.28
2023-02-11T01:47:43.859Z,1023.32
2023-02-11T01:48:43.845Z,1023.37
2023-02-11T01:49:43.824Z,1023.33
2023-02-11T01:50:43.822Z,1023.30
2023-02-11T01:51:43.867Z,1023.42
2023-02-11T01:52:43.796Z,1023.44
2023-02-11T01:53:43.782Z,1023.49
2023-02-11T01:54:43.777Z,1023.46
2023-02-11T01:55:43.757Z,1023.39
2023-02-11T01:56:43.764Z,1023.44
2023-02-11T01:57:43.793Z,1023.45
2023-02-11T01:58:43.730Z,1023.39
2023-02-11T01:59:43.727Z,1023.36
2023-02-11T02:00:43.705Z,1023.38
2023-02-11T02:01:43.750Z,1023.32
2023-02-11T02:02:43.726Z,1023.32
2023-02-11T02:03:43.841Z,1023.30
2023-02-11T02:04:43.661Z,1023.29
2023-02-11T02:05:43.659Z,1023.23
2023-02-11T02:06:43.631Z,1023.27
2023-02-11T02:07:43.682Z,1023.24
2023-02-11T02:08:43.622Z,1023.26
2023-02-11T02:09:43.598Z,1023.20
2023-02-11T02:10:43.596Z,1023.20
2023-02-11T02:11:43.578Z,1023.10
2023-02-11T02:12:43.621Z,1022.96
2023-02-11T02:13:43.581Z,1022.96
2023-02-11T02:14:43.563Z,1022.92
2023-02-11T02:15:43.574Z,1022.92
2023-02-11T02:16:43.528Z,1022.93
2023-02-11T02:17:43.566Z,1022.86
2023-02-11T02:18:43.505Z,1022.81
2023-02-11T02:19:43.486Z,1022.80
2023-02-11T02:20:43.469Z,1022.77
2023-02-11T02:21:43.467Z,1022.69
2023-02-11T02:22:43.495Z,1022.69
2023-02-11T02:23:43.461Z,1022.69
2023-02-11T02:24:43.431Z,1022.70
2023-02-11T02:25:43.422Z,1022.70
2023-02-11T02:26:43.402Z,1022.70
2023-02-11T02:27:43.440Z,1022.71
2023-02-11T02:28:43.388Z,1022.72
2023-02-11T02:29:43.377Z,1022.70
2023-02-11T02:30:43.401Z,1022.70
2023-02-11T02:31:43.485Z,1022.68
2023-02-11T02:32:43.407Z,1022.66
2023-02-11T02:33:43.323Z,1022.66
2023-02-11T02:34:43.309Z,1022.63
2023-02-11T02:35:43.309Z,1022.54
2023-02-11T02:36:43.291Z,1022.56
2023-02-11T02:37:43.328Z,1022.50
2023-02-11T02:38:43.270Z,1022.45
2023-02-11T02:39:43.257Z,1022.38
2023-02-11T02:40:43.240Z,1022.31
2023-02-11T02:41:43.277Z,1022.33
2023-02-11T02:42:43.274Z,1022.24
2023-02-11T02:43:43.214Z,1022.23
2023-02-11T02:44:43.204Z,1022.18
2023-02-11T02:45:43.197Z,1022.20
2023-02-11T02:46:43.186Z,1022.14
2023-02-11T02:47:43.217Z,1022.15
2023-02-11T02:48:43.152Z,1022.12
2023-02-11T02:49:43.159Z,1022.17
2023-02-11T02:50:43.133Z,1022.11
2023-02-11T02:51:43.126Z,1022.16
2023-02-11T02:52:43.154Z,1022.22
2023-02-11T02:53:43.107Z,1022.17
2023-02-11T02:54:43.091Z,1022.17
2023-02-11T02:55:43.087Z,1022.28
2023-02-11T02:56:43.080Z,1022.29
2023-02-11T02:57:43.110Z,1022.30
2023-02-11T02:58:45.386Z,1022.27
2023-02-11T02:59:43.037Z,1022.34
2023-02-11T03:00:43.046Z,1022.29
2023-02-11T03:01:43.025Z,1022.33
2023-02-11T03:02:43.048Z,1022.35
2023-02-11T03:03:43.026Z,1022.38
2023-02-11T03:04:42.984Z,1022.38
2023-02-11T03:05:42.972Z,1022.41
2023-02-11T03:06:42.962Z,1022.44
2023-02-11T03:07:42.982Z,1022.42
2023-02-11T03:08:42.933Z,1022.50
2023-02-11T03:09:42.918Z,1022.50
2023-02-11T03:10:42.913Z,1022.53
2023-02-11T03:11:42.907Z,1022.52
2023-02-11T03:12:42.942Z,1022.51
2023-02-11T03:13:42.889Z,1022.57
2023-02-11T03:14:42.863Z,1022.57
2023-02-11T03:15:42.873Z,1022.53
2023-02-11T03:16:42.849Z,1022.52
2023-02-11T03:17:42.883Z,1022.38
2023-02-11T03:18:42.845Z,1022.44
2023-02-11T03:19:42.815Z,1022.43
2023-02-11T03:20:42.802Z,1022.39
2023-02-11T03:21:42.813Z,1022.38
2023-02-11T03:22:42.822Z,1022.38
2023-02-11T03:23:42.783Z,1022.31
2023-02-11T03:24:42.761Z,1022.34
2023-02-11T03:25:42.750Z,1022.32
2023-02-11T03:26:42.735Z,1022.28
2023-02-11T03:27:42.802Z,1022.29
2023-02-11T03:28:42.725Z,1022.27
2023-02-11T03:29:42.713Z,1022.28
2023-02-11T03:30:42.734Z,1022.22
2023-02-11T03:31:42.854Z,1022.26
2023-02-11T03:32:42.718Z,1022.22
2023-02-11T03:33:42.677Z,1022.23
2023-02-11T03:34:42.653Z,1022.23
2023-02-11T03:35:42.642Z,1022.25
2023-02-11T03:36:42.628Z,1022.23
2023-02-11T03:37:42.661Z,1022.25
2023-02-11T03:38:42.591Z,1022.26
2023-02-11T03:39:42.587Z,1022.20
2023-02-11T03:40:42.579Z,1022.16
2023-02-11T03:41:42.577Z,1022.15
2023-02-11T03:42:42.608Z,1022.18
2023-02-11T03:43:42.547Z,1022.13
2023-02-11T03:44:42.535Z,1022.11
2023-02-11T03:45:42.575Z,1022.13
2023-02-11T03:46:42.516Z,1022.17
2023-02-11T03:47:42.554Z,1022.12
2023-02-11T03:48:42.505Z,1022.09
2023-02-11T03:49:42.521Z,1022.05
2023-02-11T03:50:42.473Z,1022.06
2023-02-11T03:51:42.475Z,1022.00
2023-02-11T03:52:42.494Z,1021.98
2023-02-11T03:53:42.463Z,1021.98
2023-02-11T03:54:42.462Z,1021.96
2023-02-11T03:55:42.440Z,1022.00
2023-02-11T03:56:42.427Z,1022.01
2023-02-11T03:57:42.472Z,1022.00
2023-02-11T03:58:42.383Z,1021.99
2023-02-11T03:59:42.384Z,1022.01
2023-02-11T04:00:42.376Z,1022.01
2023-02-11T04:01:42.369Z,1022.00
2023-02-11T04:02:42.423Z,1021.95
2023-02-11T04:03:42.326Z,1021.94
2023-02-11T04:04:42.311Z,1021.94
2023-02-11T04:05:42.332Z,1022.00
2023-02-11T04:06:42.294Z,1022.01
2023-02-11T04:07:42.338Z,1021.99
2023-02-11T04:08:42.284Z,1021.95
2023-02-11T04:09:42.265Z,1021.93
2023-02-11T04:10:42.272Z,1021.94
2023-02-11T04:11:42.260Z,1021.90
2023-02-11T04:12:42.283Z,1021.87
2023-02-11T04:13:42.238Z,1021.86
2023-02-11T04:14:42.229Z,1021.80
2023-02-11T04:15:42.201Z,1021.87
2023-02-11T04:16:42.211Z,1021.90
2023-02-11T04:17:42.246Z,1021.95
2023-02-11T04:18:42.180Z,1021.87
2023-02-11T04:19:42.172Z,1021.87
2023-02-11T04:20:42.151Z,1021.88
2023-02-11T04:21:42.141Z,1021.85
2023-02-11T04:22:42.185Z,1021.90
2023-02-11T04:23:42.142Z,1021.90
2023-02-11T04:24:42.115Z,1021.90
2023-02-11T04:25:42.115Z,1021.88
2023-02-11T04:26:42.086Z,1021.92
2023-02-11T04:27:42.126Z,1021.89
2023-02-11T04:28:42.068Z,1021.87
2023-02-11T04:29:42.060Z,1021.83
2023-02-11T04:30:42.062Z,1021.81
2023-02-11T04:31:42.090Z,1021.83
2023-02-11T04:32:42.054Z,1021.75
2023-02-11T04:33:42.013Z,1021.83
2023-02-11T04:34:41.979Z,1021.76
2023-02-11T04:35:41.982Z,1021.81
2023-02-11T04:36:41.985Z,1021.76
2023-02-11T04:37:42.040Z,1021.77
2023-02-11T04:38:41.960Z,1021.81
2023-02-11T04:39:41.954Z,1021.79
2023-02-11T04:40:41.921Z,1021.78
2023-02-11T04:41:41.909Z,1021.73
2023-02-11T04:42:41.957Z,1021.72
2023-02-11T04:43:41.908Z,1021.77
2023-02-11T04:44:41.889Z,1021.76
2023-02-11T04:45:41.914Z,1021.75
2023-02-11T04:46:41.866Z,1021.78
2023-02-11T04:47:41.907Z,1021.71
2023-02-11T04:48:41.839Z,1021.69
2023-02-11T04:49:41.832Z,1021.69
2023-02-11T04:50:41.856Z,1021.72
2023-02-11T04:51:41.824Z,1021.73
2023-02-11T04:52:41.845Z,1021.75
2023-02-11T04:53:41.787Z,1021.78
2023-02-11T04:54:41.793Z,1021.71
2023-02-11T04:55:41.773Z,1021.76
2023-02-11T04:56:41.755Z,1021.73
2023-02-11T04:57:41.794Z,1021.82
2023-02-11T04:58:41.717Z,1021.70
2023-02-11T04:59:41.717Z,1021.75
2023-02-11T05:00:41.702Z,1021.71
2023-02-11T05:01:41.710Z,1021.74
2023-02-11T05:02:41.736Z,1021.71
2023-02-11T05:03:41.702Z,1021.72
2023-02-11T05:04:41.665Z,1021.79
2023-02-11T05:05:41.655Z,1021.78
2023-02-11T05:06:41.641Z,1021.75
2023-02-11T05:07:41.679Z,1021.73
2023-02-11T05:08:41.623Z,1021.64
2023-02-11T05:09:41.611Z,1021.64
2023-02-11T05:10:41.593Z,1021.61
2023-02-11T05:11:41.591Z,1021.65
2023-02-11T05:12:41.626Z,1021.64
2023-02-11T05:13:41.579Z,1021.65
2023-02-11T05:14:41.555Z,1021.65
2023-02-11T05:15:41.547Z,1021.67
2023-02-11T05:16:41.572Z,1021.65
2023-02-11T05:17:41.567Z,1021.58
2023-02-11T05:18:41.509Z,1021.57
2023-02-11T05:19:41.482Z,1021.54
2023-02-11T05:20:41.482Z,1021.51
2023-02-11T05:21:53.167Z,1021.57
2023-02-11T05:22:42.496Z,1021.55
2023-02-11T05:23:41.446Z,1021.55
2023-02-11T05:24:41.454Z,1021.57
2023-02-11T05:25:41.431Z,1021.57
2023-02-11T05:26:41.398Z,1021.58
2023-02-11T05:27:41.432Z,1021.56
2023-02-11T05:28:41.379Z,1021.54
2023-02-11T05:29:41.385Z,1021.59
2023-02-11T05:30:41.415Z,1021.56
2023-02-11T05:31:41.374Z,1021.57
2023-02-11T05:32:41.408Z,1021.58
2023-02-11T05:33:41.342Z,1021.55
2023-02-11T05:34:41.340Z,1021.56
2023-02-11T05:35:41.312Z,1021.55
2023-02-11T05:36:41.290Z,1021.57
2023-02-11T05:37:41.297Z,1021.60
2023-02-11T05:38:41.328Z,1021.55
2023-02-11T05:39:41.268Z,1021.51
2023-02-11T05:40:41.276Z,1021.39
2023-02-11T05:41:41.251Z,1021.44
2023-02-11T05:42:41.240Z,1021.47
2023-02-11T05:43:41.272Z,1021.47
2023-02-11T05:44:41.200Z,1021.47
2023-02-11T05:45:41.211Z,1021.47
2023-02-11T05:46:41.267Z,1021.45
2023-02-11T05:47:41.177Z,1021.44
2023-02-11T05:48:41.222Z,1021.48
2023-02-11T05:49:41.154Z,1021.48
2023-02-11T05:50:41.142Z,1021.43
2023-02-11T05:51:41.132Z,1021.38
2023-02-11T05:52:41.132Z,1021.32
2023-02-11T05:53:41.175Z,1021.33
2023-02-11T05:54:41.098Z,1021.33
2023-02-11T05:55:41.075Z,1021.31
2023-02-11T05:56:43.718Z,1021.31
2023-02-11T05:57:41.063Z,1021.33
2023-02-11T05:58:41.109Z,1021.29
2023-02-11T05:59:41.050Z,1021.24
2023-02-11T06:00:41.028Z,1021.31
2023-02-11T06:01:41.041Z,1021.33
2023-02-11T06:02:41.066Z,1021.37
2023-02-11T06:03:41.124Z,1021.37
2023-02-11T06:04:40.985Z,1021.37
2023-02-11T06:05:40.964Z,1021.31
2023-02-11T06:06:40.974Z,1021.32
2023-02-11T06:07:40.940Z,1021.32
2023-02-11T06:08:41.030Z,1021.25
2023-02-11T06:09:40.934Z,1021.18
2023-02-11T06:10:40.928Z,1021.18
2023-02-11T06:11:40.907Z,1021.20
2023-02-11T06:12:40.900Z,1021.21
2023-02-11T06:13:40.918Z,1021.16
2023-02-11T06:14:40.870Z,1021.20
2023-02-11T06:15:40.891Z,1021.13
2023-02-11T06:16:40.845Z,1021.13
2023-02-11T06:17:40.848Z,1021.08
2023-02-11T06:18:40.862Z,1021.04
2023-02-11T06:19:40.820Z,1021.06
2023-02-11T06:20:40.804Z,1021.04
2023-02-11T06:21:44.137Z,1021.09
2023-02-11T06:22:40.777Z,1021.04
2023-02-11T06:23:40.796Z,1021.14
2023-02-11T06:24:58.915Z,1021.07
2023-02-11T06:25:41.736Z,1021.07
2023-02-11T06:26:40.746Z,1021.07
2023-02-11T06:27:40.728Z,1021.08
2023-02-11T06:28:42.019Z,1021.01
2023-02-11T06:29:40.702Z,1021.06
2023-02-11T06:30:40.691Z,1021.11
2023-02-11T06:31:40.810Z,1021.10
2023-02-11T06:32:45.417Z,1021.07
2023-02-11T06:33:41.708Z,1021.06
2023-02-11T06:34:40.647Z,1021.01
2023-02-11T06:35:40.628Z,1021.05
2023-02-11T06:36:40.633Z,1021.09
2023-02-11T06:37:40.620Z,1021.10
2023-02-11T06:38:40.662Z,1021.10
2023-02-11T06:39:40.595Z,1021.08
2023-02-11T06:40:40.573Z,1021.13
2023-02-11T06:41:40.658Z,1021.18
2023-02-11T06:42:40.554Z,1021.14
2023-02-11T06:43:40.580Z,1021.14
2023-02-11T06:44:40.530Z,1021.19
2023-02-11T06:45:40.503Z,1021.15
2023-02-11T06:46:40.531Z,1021.21
2023-02-11T06:47:40.479Z,1021.14
2023-02-11T06:48:41.652Z,1021.20
2023-02-11T06:49:40.461Z,1021.16
2023-02-11T06:50:40.453Z,1021.18
2023-02-11T06:51:40.451Z,1021.21
2023-02-11T06:52:40.444Z,1021.19
2023-02-11T06:53:40.479Z,1021.30
2023-02-11T06:54:40.412Z,1021.30
2023-02-11T06:55:40.420Z,1021.29
2023-02-11T06:56:40.389Z,1021.37
2023-02-11T06:57:40.394Z,1021.32
2023-02-11T06:58:40.433Z,1021.37
2023-02-11T06:59:40.352Z,1021.39
2023-02-11T07:00:40.363Z,1021.40
2023-02-11T07:01:40.400Z,1021.31
2023-02-11T07:02:40.422Z,1021.30
2023-02-11T07:03:40.375Z,1021.30
2023-02-11T07:04:40.315Z,1021.27
2023-02-11T07:05:40.284Z,1021.32
2023-02-11T07:06:40.267Z,1021.26
2023-02-11T07:07:40.275Z,1021.28
2023-02-11T07:08:40.295Z,1021.30
2023-02-11T07:09:40.242Z,1021.25
2023-02-11T07:10:40.272Z,1021.35
2023-02-11T07:11:40.223Z,1021.39
2023-02-11T07:12:40.211Z,1021.47
2023-02-11T07:13:40.249Z,1021.49
2023-02-11T07:14:40.195Z,1021.50
2023-02-11T07:15:40.154Z,1021.48
2023-02-11T07:16:40.217Z,1021.54
2023-02-11T07:17:40.130Z,1021.50
2023-02-11T07:18:40.184Z,1021.53
2023-02-11T07:19:40.158Z,1021.52
2023-02-11T07:20:40.103Z,1021.50
2023-02-11T07:21:40.130Z,1021.50
2023-02-11T07:22:40.087Z,1021.47
2023-02-11T07:23:40.112Z,1021.49
2023-02-11T07:24:40.075Z,1021.59
2023-02-11T07:25:40.081Z,1021.63
2023-02-11T07:26:40.042Z,1021.56
2023-02-11T07:27:40.059Z,1021.44
2023-02-11T07:28:40.080Z,1021.49
2023-02-11T07:29:40.025Z,1021.53
2023-02-11T07:30:40.165Z,1021.52
2023-02-11T07:31:40.108Z,1021.50
2023-02-11T07:32:40.003Z,1021.46
2023-02-11T07:33:40.022Z,1021.45
2023-02-11T07:34:40.032Z,1021.43
2023-02-11T07:35:42.365Z,1021.36
2023-02-11T07:36:39.931Z,1021.40
2023-02-11T07:37:39.934Z,1021.40
2023-02-11T07:38:39.988Z,1021.35
2023-02-11T07:39:39.908Z,1021.33
2023-02-11T07:40:39.890Z,1021.34
2023-02-11T07:41:39.881Z,1021.32
2023-02-11T07:42:39.841Z,1021.30
2023-02-11T07:43:39.882Z,1021.27
2023-02-11T07:44:39.830Z,1021.24
2023-02-11T07:45:39.834Z,1021.22
2023-02-11T07:46:39.828Z,1021.20
2023-02-11T07:47:39.814Z,1021.23
2023-02-11T07:48:39.856Z,1021.19
2023-02-11T07:49:39.783Z,1021.15
2023-02-11T07:50:39.770Z,1021.14
2023-02-11T07:51:39.770Z,1021.09
2023-02-11T07:52:39.750Z,1021.15
2023-02-11T07:53:39.787Z,1021.10
2023-02-11T07:54:39.730Z,1021.04
2023-02-11T07:55:39.723Z,1020.98
2023-02-11T07:56:39.708Z,1020.97
2023-02-11T07:57:39.703Z,1020.97
2023-02-11T07:58:39.738Z,1021.03
2023-02-11T07:59:39.653Z,1020.99
2023-02-11T08:00:39.683Z,1021.03
2023-02-11T08:01:39.644Z,1021.04
2023-02-11T08:02:39.647Z,1021.05
2023-02-11T08:03:39.663Z,1020.97
2023-02-11T08:04:39.625Z,1021.04
2023-02-11T08:05:39.615Z,1021.05
2023-02-11T08:06:39.612Z,1021.04
2023-02-11T08:07:39.630Z,1021.01
2023-02-11T08:08:39.649Z,1020.96
2023-02-11T08:09:39.553Z,1020.96
2023-02-11T08:10:39.538Z,1020.96
2023-02-11T08:11:39.520Z,1020.96
2023-02-11T08:12:39.522Z,1020.91
2023-02-11T08:13:39.572Z,1020.92
2023-02-11T08:14:39.505Z,1020.85
2023-02-11T08:15:39.499Z,1020.92
2023-02-11T08:16:39.527Z,1020.85
2023-02-11T08:17:39.460Z,1020.86
2023-02-11T08:18:39.511Z,1020.84
2023-02-11T08:19:39.438Z,1020.90
2023-02-11T08:20:39.465Z,1020.92
2023-02-11T08:21:39.429Z,1020.92
2023-02-11T08:22:39.446Z,1020.93
2023-02-11T08:23:39.450Z,1020.95
2023-02-11T08:24:39.391Z,1021.10
2023-02-11T08:25:39.376Z,1021.13
2023-02-11T08:26:39.365Z,1021.02
2023-02-11T08:27:39.359Z,1021.02
2023-02-11T08:28:39.399Z,1021.04
2023-02-11T08:29:39.327Z,1021.09
2023-02-11T08:30:39.447Z,1021.14
2023-02-11T08:31:39.606Z,1021.06
2023-02-11T08:32:39.302Z,1021.15
2023-02-11T08:33:39.335Z,1021.10
2023-02-11T08:34:39.285Z,1021.18
2023-02-11T08:35:39.269Z,1021.08
2023-02-11T08:36:39.244Z,1021.16
2023-02-11T08:37:39.223Z,1021.20
2023-02-11T08:38:39.265Z,1021.23
2023-02-11T08:39:39.215Z,1021.17
2023-02-11T08:40:39.216Z,1021.17
2023-02-11T08:41:39.200Z,1021.22
2023-02-11T08:42:39.176Z,1021.22
2023-02-11T08:43:39.239Z,1021.21
2023-02-11T08:44:39.174Z,1021.15
2023-02-11T08:45:39.342Z,1021.10
2023-02-11T08:46:39.149Z,1021.19
2023-02-11T08:47:39.134Z,1021.15
2023-02-11T08:48:39.127Z,1021.14
2023-02-11T08:49:39.152Z,1021.12
2023-02-11T08:50:39.132Z,1021.15
2023-02-11T08:51:39.103Z,1021.09
2023-02-11T08:52:39.096Z,1021.10
2023-02-11T08:53:39.064Z,1021.16
2023-02-11T08:54:39.118Z,1021.17
2023-02-11T08:55:39.038Z,1021.27
2023-02-11T08:56:39.037Z,1021.30
2023-02-11T08:57:39.031Z,1021.25
2023-02-11T08:58:39.008Z,1021.32
2023-02-11T08:59:39.043Z,1021.18
2023-02-11T09:00:38.989Z,1021.32
2023-02-11T09:01:39.025Z,1021.32
2023-02-11T09:02:39.050Z,1021.35
2023-02-11T09:03:38.963Z,1021.35
2023-02-11T09:04:38.987Z,1021.38
2023-02-11T09:05:38.914Z,1021.39
2023-02-11T09:06:38.934Z,1021.31
2023-02-11T09:07:38.898Z,1021.30
2023-02-11T09:08:38.911Z,1021.29
2023-02-11T09:09:38.937Z,1021.38
2023-02-11T09:10:38.895Z,1021.26
2023-02-11T09:11:38.860Z,1021.46
2023-02-11T09:12:38.850Z,1021.47
2023-02-11T09:13:38.845Z,1021.47
2023-02-11T09:14:38.899Z,1021.38
2023-02-11T09:15:38.797Z,1021.35
2023-02-11T09:16:38.860Z,1021.34
2023-02-11T09:17:38.798Z,1021.31
2023-02-11T09:18:38.787Z,1021.20
2023-02-11T09:19:38.796Z,1021.17
2023-02-11T09:20:38.800Z,1021.17
2023-02-11T09:21:38.738Z,1020.94
2023-02-11T09:22:38.780Z,1021.00
2023-02-11T09:23:38.732Z,1021.01
2023-02-11T09:24:38.748Z,1021.04
2023-02-11T09:25:38.688Z,1021.11
2023-02-11T09:26:38.708Z,1021.13
2023-02-11T09:27:38.679Z,1021.07
2023-02-11T09:28:38.752Z,1021.04
2023-02-11T09:29:38.692Z,1021.00
2023-02-11T09:30:38.780Z,1020.88
2023-02-11T09:31:38.728Z,1020.75
2023-02-11T09:32:38.611Z,1020.66
2023-02-11T09:33:38.588Z,1020.70
2023-02-11T09:34:38.680Z,1020.69
2023-02-11T09:35:38.571Z,1020.69
2023-02-11T09:36:38.587Z,1020.82
2023-02-11T09:37:38.559Z,1020.73
2023-02-11T09:38:38.563Z,1020.79
2023-02-11T09:39:38.601Z,1020.77
2023-02-11T09:40:39.317Z,1020.77
2023-02-11T09:41:38.520Z,1020.67
2023-02-11T09:42:38.505Z,1020.71
2023-02-11T09:43:38.507Z,1020.69
2023-02-11T09:44:38.553Z,1020.62
2023-02-11T09:45:38.488Z,1020.53
2023-02-11T09:46:38.475Z,1020.54
2023-02-11T09:47:38.455Z,1020.61
2023-02-11T09:48:38.452Z,1020.67
2023-02-11T09:49:38.497Z,1020.60
2023-02-11T09:50:38.420Z,1020.68
2023-02-11T09:51:38.408Z,1020.73
2023-02-11T09:52:38.419Z,1020.79
2023-02-11T09:53:38.394Z,1020.78
2023-02-11T09:54:38.441Z,1020.75
2023-02-11T09:55:38.349Z,1020.77
2023-02-11T09:56:38.375Z,1020.85
2023-02-11T09:57:38.328Z,1020.86
2023-02-11T09:58:38.314Z,1020.93
2023-02-11T09:59:38.350Z,1021.00
2023-02-11T10:00:38.319Z,1021.08
2023-02-11T10:01:38.322Z,1021.12
2023-02-11T10:02:38.305Z,1021.14
2023-02-11T10:03:38.277Z,1021.12
2023-02-11T10:04:38.368Z,1021.10
2023-02-11T10:05:38.260Z,1021.05
2023-02-11T10:06:38.240Z,1021.06
2023-02-11T10:07:38.236Z,1020.98
2023-02-11T10:08:38.243Z,1021.06
2023-02-11T10:09:38.252Z,1021.08
2023-02-11T10:10:38.194Z,1021.09
2023-02-11T10:11:38.187Z,1021.12
2023-02-11T10:12:38.175Z,1021.17
2023-02-11T10:13:40.200Z,1021.09
2023-02-11T10:14:38.197Z,1021.10
2023-02-11T10:15:38.178Z,1021.07
2023-02-11T10:16:38.146Z,1021.07
2023-02-11T10:17:38.121Z,1021.13
2023-02-11T10:18:38.112Z,1021.22
2023-02-11T10:19:38.195Z,1021.20
2023-02-11T10:20:38.069Z,1021.23
2023-02-11T10:21:38.089Z,1021.22
2023-02-11T10:22:38.061Z,1021.13
2023-02-11T10:23:38.062Z,1021.05
2023-02-11T10:24:38.061Z,1021.03
2023-02-11T10:25:38.020Z,1021.00
2023-02-11T10:26:38.028Z,1021.12
2023-02-11T10:27:37.998Z,1021.06
2023-02-11T10:28:38.039Z,1021.07
2023-02-11T10:29:38.037Z,1021.10
2023-02-11T10:30:37.990Z,1021.12
2023-02-11T10:31:38.043Z,1021.17
2023-02-11T10:32:37.965Z,1021.12
2023-02-11T10:33:37.943Z,1021.15
2023-02-11T10:34:37.976Z,1021.21
2023-02-11T10:35:37.918Z,1021.17
2023-02-11T10:36:37.899Z,1021.23
2023-02-11T10:37:37.901Z,1021.19
2023-02-11T10:38:37.871Z,1021.22
2023-02-11T10:39:37.916Z,1021.15
2023-02-11T10:40:37.853Z,1021.10
2023-02-11T10:41:37.864Z,1021.06
2023-02-11T10:42:37.836Z,1020.99
2023-02-11T10:43:37.839Z,1020.96
2023-02-11T10:44:37.854Z,1020.91
2023-02-11T10:45:37.804Z,1020.89
2023-02-11T10:46:37.854Z,1020.99
2023-02-11T10:47:37.777Z,1020.93
2023-02-11T10:48:37.786Z,1020.90
2023-02-11T10:49:37.814Z,1020.94
2023-02-11T10:50:37.746Z,1020.99
2023-02-11T10:51:37.750Z,1020.91
2023-02-11T10:52:37.707Z,1020.99
2023-02-11T10:53:37.704Z,1021.02
2023-02-11T10:54:37.740Z,1020.89
2023-02-11T10:55:37.694Z,1020.91
2023-02-11T10:56:37.683Z,1020.92
2023-02-11T10:57:37.697Z,1020.94
2023-02-11T10:58:37.647Z,1020.98
2023-02-11T10:59:37.699Z,1020.96
2023-02-11T11:00:37.639Z,1021.02
2023-02-11T11:01:37.657Z,1020.98
2023-02-11T11:02:37.613Z,1021.01
2023-02-11T11:03:37.612Z,1021.00
2023-02-11T11:04:37.696Z,1020.92
2023-02-11T11:05:37.576Z,1020.94
2023-02-11T11:06:37.562Z,1020.96
2023-02-11T11:07:37.564Z,1020.89
2023-02-11T11:08:37.539Z,1020.96
2023-02-11T11:09:37.573Z,1020.95
2023-02-11T11:10:37.527Z,1020.93
2023-02-11T11:11:37.524Z,1021.02
2023-02-11T11:12:39.628Z,1020.97
2023-02-11T11:13:37.482Z,1020.88
2023-02-11T11:14:37.509Z,1020.94
2023-02-11T11:15:37.501Z,1020.98
2023-02-11T11:16:37.470Z,1020.99
2023-02-11T11:17:37.443Z,1021.03
2023-02-11T11:18:37.446Z,1021.03
2023-02-11T11:19:37.479Z,1020.99
2023-02-11T11:20:37.385Z,1021.09
2023-02-11T11:21:37.385Z,1021.03
2023-02-11T11:22:37.353Z,1021.09
2023-02-11T11:23:37.379Z,1021.07
2023-02-11T11:24:37.354Z,1021.17
2023-02-11T11:25:37.397Z,1021.17
2023-02-11T11:26:37.337Z,1021.22
2023-02-11T11:27:37.325Z,1021.21
2023-02-11T11:28:37.334Z,1021.21
2023-02-11T11:29:37.320Z,1021.09
2023-02-11T11:30:37.357Z,1020.92
2023-02-11T11:31:37.371Z,1020.92
2023-02-11T11:32:37.300Z,1021.06
2023-02-11T11:33:37.267Z,1021.06
2023-02-11T11:34:37.240Z,1021.09
2023-02-11T11:35:37.272Z,1021.02
2023-02-11T11:36:37.220Z,1020.93
2023-02-11T11:37:37.238Z,1020.85
2023-02-11T11:38:37.198Z,1020.84
2023-02-11T11:39:37.192Z,1020.80
2023-02-11T11:40:37.227Z,1020.82
2023-02-11T11:41:37.154Z,1020.87
2023-02-11T11:42:37.162Z,1020.87
2023-02-11T11:43:37.135Z,1020.90
2023-02-11T11:44:37.128Z,1020.83
2023-02-11T11:45:37.171Z,1020.85
2023-02-11T11:46:37.129Z,1020.82
2023-02-11T11:47:37.071Z,1020.83
2023-02-11T11:48:37.078Z,1020.83
2023-02-11T11:49:37.076Z,1020.89
2023-02-11T11:50:37.099Z,1020.84
2023-02-11T11:51:37.053Z,1020.79
2023-02-11T11:52:37.030Z,1020.79
2023-02-11T11:53:37.011Z,1020.73
2023-02-11T11:54:37.007Z,1020.86
2023-02-11T11:55:37.055Z,1020.81
2023-02-11T11:56:36.966Z,1020.82
2023-02-11T11:57:36.987Z,1020.86
2023-02-11T11:58:36.967Z,1020.66
2023-02-11T11:59:36.959Z,1020.79
2023-02-11T12:00:36.967Z,1020.84
2023-02-11T12:01:36.965Z,1020.85
2023-02-11T12:02:36.924Z,1020.82
2023-02-11T12:03:36.925Z,1020.84
2023-02-11T12:04:36.889Z,1020.87
2023-02-11T12:05:36.928Z,1020.81